sensor_id;sensor_type;location;lat;lon;timestamp;P1;durP1;ratioP1;P2;durP2;ratioP2
36829;SDS011;22767;47.328;9.640;2023-01-16T00:01:16;1.83;;;1.10;;
36829;SDS011;22767;47.328;9.640;2023-01-16T00:03:43;2.92;;;1.50;;
36829;SDS011;22767;47.328;9.640;2023-01-16T00:06:09;2.20;;;1.00;;
36829;SDS011;22767;47.328;9.640;2023-01-16T00:08:35;1.70;;;1.30;;
36829;SDS011;22767;47.328;9.640;2023-01-16T00:11:01;1.40;;;0.85;;
36829;SDS011;22767;47.328;9.640;2023-01-16T00:13:27;1.40;;;0.80;;
36829;SDS011;22767;47.328;9.640;2023-01-16T00:15:53;1.27;;;0.43;;
36829;SDS011;22767;47.328;9.640;2023-01-16T00:18:19;0.70;;;0.35;;
36829;SDS011;22767;47.328;9.640;2023-01-16T00:20:46;2.65;;;0.40;;
36829;SDS011;22767;47.328;9.640;2023-01-16T00:23:13;0.75;;;0.52;;
36829;SDS011;22767;47.328;9.640;2023-01-16T00:25:40;0.60;;;0.50;;
36829;SDS011;22767;47.328;9.640;2023-01-16T00:28:07;1.13;;;0.40;;
36829;SDS011;22767;47.328;9.640;2023-01-16T00:30:33;0.77;;;0.77;;
36829;SDS011;22767;47.328;9.640;2023-01-16T00:33:00;2.03;;;0.70;;
36829;SDS011;22767;47.328;9.640;2023-01-16T00:35:26;1.48;;;0.65;;
36829;SDS011;22767;47.328;9.640;2023-01-16T00:37:52;1.25;;;0.90;;
36829;SDS011;22767;47.328;9.640;2023-01-16T00:40:19;1.73;;;0.70;;
36829;SDS011;22767;47.328;9.640;2023-01-16T00:42:45;1.85;;;1.20;;
36829;SDS011;22767;47.328;9.640;2023-01-16T00:45:11;1.33;;;0.98;;
36829;SDS011;22767;47.328;9.640;2023-01-16T00:47:37;1.05;;;0.95;;
36829;SDS011;22767;47.328;9.640;2023-01-16T00:50:04;2.63;;;1.08;;
36829;SDS011;22767;47.328;9.640;2023-01-16T00:52:30;1.23;;;0.90;;
36829;SDS011;22767;47.328;9.640;2023-01-16T00:54:56;1.38;;;0.90;;
36829;SDS011;22767;47.328;9.640;2023-01-16T00:57:22;1.73;;;1.00;;
36829;SDS011;22767;47.328;9.640;2023-01-16T00:59:48;1.27;;;0.80;;
36829;SDS011;22767;47.328;9.640;2023-01-16T01:02:14;1.08;;;0.88;;
36829;SDS011;22767;47.328;9.640;2023-01-16T01:04:41;1.50;;;1.00;;
36829;SDS011;22767;47.328;9.640;2023-01-16T01:07:07;1.65;;;1.10;;
36829;SDS011;22767;47.328;9.640;2023-01-16T01:09:33;1.38;;;0.95;;
36829;SDS011;22767;47.328;9.640;2023-01-16T01:11:59;2.25;;;0.98;;
36829;SDS011;22767;47.328;9.640;2023-01-16T01:14:26;1.33;;;0.90;;
36829;SDS011;22767;47.328;9.640;2023-01-16T01:16:52;2.38;;;1.10;;
36829;SDS011;22767;47.328;9.640;2023-01-16T01:19:19;1.73;;;1.00;;
36829;SDS011;22767;47.328;9.640;2023-01-16T01:21:45;1.10;;;0.85;;
36829;SDS011;22767;47.328;9.640;2023-01-16T01:24:11;1.30;;;1.00;;
36829;SDS011;22767;47.328;9.640;2023-01-16T01:26:37;0.98;;;0.73;;
36829;SDS011;22767;47.328;9.640;2023-01-16T01:29:03;1.08;;;0.80;;
36829;SDS011;22767;47.328;9.640;2023-01-16T01:31:30;1.10;;;0.80;;
36829;SDS011;22767;47.328;9.640;2023-01-16T01:33:56;0.60;;;0.30;;
36829;SDS011;22767;47.328;9.640;2023-01-16T01:36:22;1.13;;;0.47;;
36829;SDS011;22767;47.328;9.640;2023-01-16T01:38:48;0.88;;;0.32;;
36829;SDS011;22767;47.328;9.640;2023-01-16T01:41:16;0.60;;;0.30;;
36829;SDS011;22767;47.328;9.640;2023-01-16T01:49:05;0.30;;;0.25;;
36829;SDS011;22767;47.328;9.640;2023-01-16T01:51:33;0.80;;;0.40;;
36829;SDS011;22767;47.328;9.640;2023-01-16T01:54:11;0.30;;;0.20;;
36829;SDS011;22767;47.328;9.640;2023-01-16T01:56:57;1.45;;;0.30;;
36829;SDS011;22767;47.328;9.640;2023-01-16T01:59:35;0.20;;;0.20;;
36829;SDS011;22767;47.328;9.640;2023-01-16T02:02:03;0.73;;;0.28;;
36829;SDS011;22767;47.328;9.640;2023-01-16T02:04:31;1.05;;;0.20;;
36829;SDS011;22767;47.328;9.640;2023-01-16T02:07:00;1.08;;;0.30;;
36829;SDS011;22767;47.328;9.640;2023-01-16T02:09:27;0.50;;;0.20;;
36829;SDS011;22767;47.328;9.640;2023-01-16T02:11:58;0.13;;;0.13;;
36829;SDS011;22767;47.328;9.640;2023-01-16T02:14:26;0.98;;;0.30;;
36829;SDS011;22767;47.328;9.640;2023-01-16T02:16:56;0.25;;;0.25;;
36829;SDS011;22767;47.328;9.640;2023-01-16T02:22:15;1.35;;;0.20;;
36829;SDS011;22767;47.328;9.640;2023-01-16T02:32:30;0.10;;;0.10;;
36829;SDS011;22767;47.328;9.640;2023-01-16T02:43:27;0.98;;;0.17;;
36829;SDS011;22767;47.328;9.640;2023-01-16T02:48:28;0.20;;;0.20;;
36829;SDS011;22767;47.328;9.640;2023-01-16T02:56:12;0.20;;;0.20;;
36829;SDS011;22767;47.328;9.640;2023-01-16T02:58:43;1.17;;;0.20;;
36829;SDS011;22767;47.328;9.640;2023-01-16T03:01:11;0.35;;;0.10;;
36829;SDS011;22767;47.328;9.640;2023-01-16T03:09:04;0.60;;;0.30;;
36829;SDS011;22767;47.328;9.640;2023-01-16T03:11:36;0.60;;;0.30;;
36829;SDS011;22767;47.328;9.640;2023-01-16T03:14:16;0.40;;;0.20;;
36829;SDS011;22767;47.328;9.640;2023-01-16T03:19:12;0.35;;;0.30;;
36829;SDS011;22767;47.328;9.640;2023-01-16T03:21:58;1.25;;;0.30;;
36829;SDS011;22767;47.328;9.640;2023-01-16T03:24:35;0.40;;;0.20;;
36829;SDS011;22767;47.328;9.640;2023-01-16T03:27:08;1.00;;;0.22;;
36829;SDS011;22767;47.328;9.640;2023-01-16T03:29:46;0.65;;;0.25;;
36829;SDS011;22767;47.328;9.640;2023-01-16T03:34:53;0.40;;;0.32;;
36829;SDS011;22767;47.328;9.640;2023-01-16T03:37:25;0.20;;;0.20;;
36829;SDS011;22767;47.328;9.640;2023-01-16T03:39:53;0.30;;;0.10;;
36829;SDS011;22767;47.328;9.640;2023-01-16T03:42:23;0.38;;;0.10;;
36829;SDS011;22767;47.328;9.640;2023-01-16T03:44:51;0.75;;;0.20;;
36829;SDS011;22767;47.328;9.640;2023-01-16T03:47:25;0.30;;;0.30;;
36829;SDS011;22767;47.328;9.640;2023-01-16T03:49:54;0.55;;;0.10;;
36829;SDS011;22767;47.328;9.640;2023-01-16T03:52:22;1.65;;;0.10;;
36829;SDS011;22767;47.328;9.640;2023-01-16T03:57:18;0.68;;;0.20;;
36829;SDS011;22767;47.328;9.640;2023-01-16T03:59:46;0.20;;;0.20;;
36829;SDS011;22767;47.328;9.640;2023-01-16T04:07:31;0.20;;;0.10;;
36829;SDS011;22767;47.328;9.640;2023-01-16T04:10:04;0.10;;;0.05;;
36829;SDS011;22767;47.328;9.640;2023-01-16T04:12:35;0.32;;;0.10;;
36829;SDS011;22767;47.328;9.640;2023-01-16T04:15:03;0.03;;;0.03;;
36829;SDS011;22767;47.328;9.640;2023-01-16T04:17:30;0.80;;;0.00;;
36829;SDS011;22767;47.328;9.640;2023-01-16T04:19:56;0.60;;;0.20;;
36829;SDS011;22767;47.328;9.640;2023-01-16T04:22:27;1.42;;;0.80;;
36829;SDS011;22767;47.328;9.640;2023-01-16T04:24:54;0.57;;;0.43;;
36829;SDS011;22767;47.328;9.640;2023-01-16T04:27:21;1.70;;;0.68;;
36829;SDS011;22767;47.328;9.640;2023-01-16T04:29:47;1.52;;;0.90;;
36829;SDS011;22767;47.328;9.640;2023-01-16T04:32:13;0.60;;;0.50;;
36829;SDS011;22767;47.328;9.640;2023-01-16T04:34:39;1.88;;;0.55;;
36829;SDS011;22767;47.328;9.640;2023-01-16T04:37:05;0.60;;;0.50;;
36829;SDS011;22767;47.328;9.640;2023-01-16T04:39:32;1.00;;;0.50;;
36829;SDS011;22767;47.328;9.640;2023-01-16T04:41:58;0.57;;;0.57;;
36829;SDS011;22767;47.328;9.640;2023-01-16T04:44:24;0.93;;;0.60;;
36829;SDS011;22767;47.328;9.640;2023-01-16T04:46:50;1.10;;;0.60;;
36829;SDS011;22767;47.328;9.640;2023-01-16T04:49:16;1.52;;;0.80;;
36829;SDS011;22767;47.328;9.640;2023-01-16T04:51:42;1.27;;;0.60;;
36829;SDS011;22767;47.328;9.640;2023-01-16T04:54:09;1.55;;;0.70;;
36829;SDS011;22767;47.328;9.640;2023-01-16T04:56:38;0.55;;;0.50;;
36829;SDS011;22767;47.328;9.640;2023-01-16T04:59:05;0.60;;;0.40;;
36829;SDS011;22767;47.328;9.640;2023-01-16T05:01:31;0.35;;;0.10;;
36829;SDS011;22767;47.328;9.640;2023-01-16T05:04:03;0.55;;;0.15;;
36829;SDS011;22767;47.328;9.640;2023-01-16T05:06:30;0.38;;;0.20;;
36829;SDS011;22767;47.328;9.640;2023-01-16T05:08:56;0.95;;;0.40;;
36829;SDS011;22767;47.328;9.640;2023-01-16T05:11:22;0.65;;;0.30;;
36829;SDS011;22767;47.328;9.640;2023-01-16T05:13:48;1.42;;;0.60;;
36829;SDS011;22767;47.328;9.640;2023-01-16T05:16:16;0.68;;;0.30;;
36829;SDS011;22767;47.328;9.640;2023-01-16T05:18:42;0.25;;;0.20;;
36829;SDS011;22767;47.328;9.640;2023-01-16T05:21:08;0.52;;;0.40;;
36829;SDS011;22767;47.328;9.640;2023-01-16T05:23:34;0.75;;;0.50;;
36829;SDS011;22767;47.328;9.640;2023-01-16T05:26:02;1.10;;;0.65;;
36829;SDS011;22767;47.328;9.640;2023-01-16T05:28:29;1.45;;;0.60;;
36829;SDS011;22767;47.328;9.640;2023-01-16T05:30:55;1.80;;;0.80;;
36829;SDS011;22767;47.328;9.640;2023-01-16T05:33:21;1.67;;;0.80;;
36829;SDS011;22767;47.328;9.640;2023-01-16T05:35:48;2.65;;;0.88;;
36829;SDS011;22767;47.328;9.640;2023-01-16T05:38:14;2.72;;;1.10;;
36829;SDS011;22767;47.328;9.640;2023-01-16T05:40:41;1.67;;;0.90;;
36829;SDS011;22767;47.328;9.640;2023-01-16T05:43:09;1.63;;;0.90;;
36829;SDS011;22767;47.328;9.640;2023-01-16T05:45:35;1.92;;;0.70;;
36829;SDS011;22767;47.328;9.640;2023-01-16T05:48:01;1.42;;;0.60;;
36829;SDS011;22767;47.328;9.640;2023-01-16T05:50:27;0.80;;;0.60;;
36829;SDS011;22767;47.328;9.640;2023-01-16T05:52:54;0.70;;;0.40;;
36829;SDS011;22767;47.328;9.640;2023-01-16T05:55:20;1.38;;;0.50;;
36829;SDS011;22767;47.328;9.640;2023-01-16T05:57:46;1.05;;;0.50;;
36829;SDS011;22767;47.328;9.640;2023-01-16T06:00:12;0.30;;;0.30;;
36829;SDS011;22767;47.328;9.640;2023-01-16T06:02:39;1.63;;;0.60;;
36829;SDS011;22767;47.328;9.640;2023-01-16T06:05:05;0.50;;;0.40;;
36829;SDS011;22767;47.328;9.640;2023-01-16T06:07:41;0.70;;;0.57;;
36829;SDS011;22767;47.328;9.640;2023-01-16T06:10:08;1.20;;;0.60;;
36829;SDS011;22767;47.328;9.640;2023-01-16T06:12:35;2.90;;;1.05;;
36829;SDS011;22767;47.328;9.640;2023-01-16T06:15:01;2.30;;;0.85;;
36829;SDS011;22767;47.328;9.640;2023-01-16T06:17:27;2.35;;;0.85;;
36829;SDS011;22767;47.328;9.640;2023-01-16T06:19:53;1.05;;;0.82;;
36829;SDS011;22767;47.328;9.640;2023-01-16T06:22:19;1.85;;;0.70;;
36829;SDS011;22767;47.328;9.640;2023-01-16T06:24:45;0.80;;;0.52;;
36829;SDS011;22767;47.328;9.640;2023-01-16T06:27:11;1.80;;;0.93;;
36829;SDS011;22767;47.328;9.640;2023-01-16T06:29:37;1.02;;;0.60;;
36829;SDS011;22767;47.328;9.640;2023-01-16T06:32:04;1.45;;;0.63;;
36829;SDS011;22767;47.328;9.640;2023-01-16T06:34:30;0.60;;;0.50;;
36829;SDS011;22767;47.328;9.640;2023-01-16T06:36:56;1.92;;;0.50;;
36829;SDS011;22767;47.328;9.640;2023-01-16T06:39:23;0.85;;;0.30;;
36829;SDS011;22767;47.328;9.640;2023-01-16T06:41:49;1.27;;;0.25;;
36829;SDS011;22767;47.328;9.640;2023-01-16T06:44:15;1.75;;;1.65;;
36829;SDS011;22767;47.328;9.640;2023-01-16T06:46:41;0.90;;;0.90;;
36829;SDS011;22767;47.328;9.640;2023-01-16T06:49:08;0.88;;;0.50;;
36829;SDS011;22767;47.328;9.640;2023-01-16T06:51:34;0.47;;;0.47;;
36829;SDS011;22767;47.328;9.640;2023-01-16T06:54:00;1.40;;;0.40;;
36829;SDS011;22767;47.328;9.640;2023-01-16T06:56:28;1.67;;;0.40;;
36829;SDS011;22767;47.328;9.640;2023-01-16T06:58:54;0.63;;;0.40;;
36829;SDS011;22767;47.328;9.640;2023-01-16T07:01:20;0.52;;;0.50;;
36829;SDS011;22767;47.328;9.640;2023-01-16T07:03:46;0.30;;;0.30;;
36829;SDS011;22767;47.328;9.640;2023-01-16T07:06:12;1.05;;;0.32;;
36829;SDS011;22767;47.328;9.640;2023-01-16T07:08:39;0.70;;;0.38;;
36829;SDS011;22767;47.328;9.640;2023-01-16T07:11:05;0.60;;;0.55;;
36829;SDS011;22767;47.328;9.640;2023-01-16T07:13:31;0.73;;;0.32;;
36829;SDS011;22767;47.328;9.640;2023-01-16T07:15:58;1.23;;;0.50;;
36829;SDS011;22767;47.328;9.640;2023-01-16T07:18:43;2.92;;;0.63;;
36829;SDS011;22767;47.328;9.640;2023-01-16T07:21:28;0.45;;;0.40;;
36829;SDS011;22767;47.328;9.640;2023-01-16T07:24:18;1.50;;;0.70;;
36829;SDS011;22767;47.328;9.640;2023-01-16T07:26:45;1.93;;;0.60;;
36829;SDS011;22767;47.328;9.640;2023-01-16T07:29:16;0.40;;;0.40;;
36829;SDS011;22767;47.328;9.640;2023-01-16T07:31:42;0.38;;;0.28;;
36829;SDS011;22767;47.328;9.640;2023-01-16T07:34:08;0.45;;;0.40;;
36829;SDS011;22767;47.328;9.640;2023-01-16T07:36:34;0.55;;;0.40;;
36829;SDS011;22767;47.328;9.640;2023-01-16T07:39:01;0.70;;;0.25;;
36829;SDS011;22767;47.328;9.640;2023-01-16T07:41:27;2.67;;;0.30;;
36829;SDS011;22767;47.328;9.640;2023-01-16T07:43:53;1.05;;;0.30;;
36829;SDS011;22767;47.328;9.640;2023-01-16T07:46:19;0.55;;;0.20;;
36829;SDS011;22767;47.328;9.640;2023-01-16T07:48:45;0.52;;;0.30;;
36829;SDS011;22767;47.328;9.640;2023-01-16T07:51:11;0.40;;;0.32;;
36829;SDS011;22767;47.328;9.640;2023-01-16T07:53:38;0.93;;;0.30;;
36829;SDS011;22767;47.328;9.640;2023-01-16T07:56:04;0.25;;;0.25;;
36829;SDS011;22767;47.328;9.640;2023-01-16T07:58:30;0.93;;;0.40;;
36829;SDS011;22767;47.328;9.640;2023-01-16T08:00:57;0.70;;;0.30;;
36829;SDS011;22767;47.328;9.640;2023-01-16T08:03:23;0.40;;;0.40;;
36829;SDS011;22767;47.328;9.640;2023-01-16T08:05:54;0.40;;;0.30;;
36829;SDS011;22767;47.328;9.640;2023-01-16T08:08:20;2.03;;;0.50;;
36829;SDS011;22767;47.328;9.640;2023-01-16T08:10:46;1.45;;;0.88;;
36829;SDS011;22767;47.328;9.640;2023-01-16T08:13:12;1.08;;;0.50;;
36829;SDS011;22767;47.328;9.640;2023-01-16T08:15:38;0.55;;;0.40;;
36829;SDS011;22767;47.328;9.640;2023-01-16T08:18:05;0.98;;;0.52;;
36829;SDS011;22767;47.328;9.640;2023-01-16T08:20:31;1.15;;;0.52;;
36829;SDS011;22767;47.328;9.640;2023-01-16T08:22:57;0.80;;;0.50;;
36829;SDS011;22767;47.328;9.640;2023-01-16T08:25:25;1.13;;;0.50;;
36829;SDS011;22767;47.328;9.640;2023-01-16T08:27:51;0.88;;;0.40;;
36829;SDS011;22767;47.328;9.640;2023-01-16T08:30:20;0.57;;;0.20;;
36829;SDS011;22767;47.328;9.640;2023-01-16T08:32:46;2.38;;;0.60;;
36829;SDS011;22767;47.328;9.640;2023-01-16T08:35:13;0.38;;;0.35;;
36829;SDS011;22767;47.328;9.640;2023-01-16T08:37:43;1.52;;;0.43;;
36829;SDS011;22767;47.328;9.640;2023-01-16T08:40:13;0.68;;;0.50;;
36829;SDS011;22767;47.328;9.640;2023-01-16T08:42:39;0.40;;;0.38;;
36829;SDS011;22767;47.328;9.640;2023-01-16T08:45:23;2.53;;;0.50;;
36829;SDS011;22767;47.328;9.640;2023-01-16T08:48:08;0.28;;;0.22;;
36829;SDS011;22767;47.328;9.640;2023-01-16T08:50:53;0.50;;;0.20;;
36829;SDS011;22767;47.328;9.640;2023-01-16T08:53:39;0.35;;;0.35;;
36829;SDS011;22767;47.328;9.640;2023-01-16T08:56:05;1.05;;;0.40;;
36829;SDS011;22767;47.328;9.640;2023-01-16T08:58:31;1.60;;;0.50;;
36829;SDS011;22767;47.328;9.640;2023-01-16T09:00:57;0.75;;;0.40;;
36829;SDS011;22767;47.328;9.640;2023-01-16T09:03:24;0.82;;;0.47;;
36829;SDS011;22767;47.328;9.640;2023-01-16T09:05:50;1.48;;;0.50;;
36829;SDS011;22767;47.328;9.640;2023-01-16T09:08:16;1.13;;;0.60;;
36829;SDS011;22767;47.328;9.640;2023-01-16T09:10:42;0.40;;;0.30;;
36829;SDS011;22767;47.328;9.640;2023-01-16T09:13:28;0.70;;;0.52;;
36829;SDS011;22767;47.328;9.640;2023-01-16T09:16:13;0.80;;;0.43;;
36829;SDS011;22767;47.328;9.640;2023-01-16T09:18:39;1.55;;;0.55;;
36829;SDS011;22767;47.328;9.640;2023-01-16T09:21:05;1.10;;;0.45;;
36829;SDS011;22767;47.328;9.640;2023-01-16T09:23:31;1.55;;;0.45;;
36829;SDS011;22767;47.328;9.640;2023-01-16T09:25:57;0.63;;;0.50;;
36829;SDS011;22767;47.328;9.640;2023-01-16T09:28:23;0.80;;;0.80;;
36829;SDS011;22767;47.328;9.640;2023-01-16T09:30:53;1.05;;;0.70;;
36829;SDS011;22767;47.328;9.640;2023-01-16T09:33:19;1.88;;;0.90;;
36829;SDS011;22767;47.328;9.640;2023-01-16T09:35:45;1.60;;;1.00;;
36829;SDS011;22767;47.328;9.640;2023-01-16T09:38:11;1.35;;;0.98;;
36829;SDS011;22767;47.328;9.640;2023-01-16T09:40:37;1.05;;;0.80;;
36829;SDS011;22767;47.328;9.640;2023-01-16T09:46:00;2.42;;;0.80;;
36829;SDS011;22767;47.328;9.640;2023-01-16T09:48:33;0.80;;;0.50;;
36829;SDS011;22767;47.328;9.640;2023-01-16T09:51:06;1.02;;;0.70;;
36829;SDS011;22767;47.328;9.640;2023-01-16T09:53:44;1.20;;;0.80;;
36829;SDS011;22767;47.328;9.640;2023-01-16T09:56:33;1.05;;;0.40;;
36829;SDS011;22767;47.328;9.640;2023-01-16T09:59:20;1.60;;;0.50;;
36829;SDS011;22767;47.328;9.640;2023-01-16T10:01:52;1.27;;;0.40;;
36829;SDS011;22767;47.328;9.640;2023-01-16T10:04:20;0.73;;;0.22;;
36829;SDS011;22767;47.328;9.640;2023-01-16T10:06:59;0.50;;;0.28;;
36829;SDS011;22767;47.328;9.640;2023-01-16T10:12:14;1.10;;;0.40;;
36829;SDS011;22767;47.328;9.640;2023-01-16T10:22:30;0.80;;;0.30;;
36829;SDS011;22767;47.328;9.640;2023-01-16T10:25:18;0.93;;;0.30;;
36829;SDS011;22767;47.328;9.640;2023-01-16T10:30:17;0.95;;;0.70;;
36829;SDS011;22767;47.328;9.640;2023-01-16T10:32:50;3.40;;;0.90;;
36829;SDS011;22767;47.328;9.640;2023-01-16T10:41:17;5.97;;;1.83;;
36829;SDS011;22767;47.328;9.640;2023-01-16T10:44:03;3.05;;;1.40;;
36829;SDS011;22767;47.328;9.640;2023-01-16T10:46:50;7.07;;;1.50;;
36829;SDS011;22767;47.328;9.640;2023-01-16T10:49:35;3.20;;;1.42;;
36829;SDS011;22767;47.328;9.640;2023-01-16T10:52:01;4.70;;;2.10;;
36829;SDS011;22767;47.328;9.640;2023-01-16T10:54:29;4.90;;;1.60;;
36829;SDS011;22767;47.328;9.640;2023-01-16T10:56:55;3.63;;;1.52;;
36829;SDS011;22767;47.328;9.640;2023-01-16T10:59:26;2.20;;;1.40;;
36829;SDS011;22767;47.328;9.640;2023-01-16T11:01:53;2.15;;;1.23;;
36829;SDS011;22767;47.328;9.640;2023-01-16T11:04:22;2.28;;;1.48;;
36829;SDS011;22767;47.328;9.640;2023-01-16T11:07:31;2.47;;;1.30;;
36829;SDS011;22767;47.328;9.640;2023-01-16T11:09:50;1.63;;;1.35;;
36829;SDS011;22767;47.328;9.640;2023-01-16T11:15:04;3.83;;;1.50;;
36829;SDS011;22767;47.328;9.640;2023-01-16T11:17:55;3.60;;;1.63;;
36829;SDS011;22767;47.328;9.640;2023-01-16T11:20:54;1.77;;;1.10;;
36829;SDS011;22767;47.328;9.640;2023-01-16T11:23:21;6.32;;;1.45;;
36829;SDS011;22767;47.328;9.640;2023-01-16T11:25:49;4.50;;;1.50;;
36829;SDS011;22767;47.328;9.640;2023-01-16T11:28:29;3.33;;;1.30;;
36829;SDS011;22767;47.328;9.640;2023-01-16T11:33:55;1.35;;;0.88;;
36829;SDS011;22767;47.328;9.640;2023-01-16T11:36:26;1.45;;;1.00;;
36829;SDS011;22767;47.328;9.640;2023-01-16T11:38:54;2.85;;;0.90;;
36829;SDS011;22767;47.328;9.640;2023-01-16T11:41:23;1.60;;;1.17;;
36829;SDS011;22767;47.328;9.640;2023-01-16T11:44:13;2.35;;;1.30;;
36829;SDS011;22767;47.328;9.640;2023-01-16T11:46:56;2.42;;;1.17;;
36829;SDS011;22767;47.328;9.640;2023-01-16T11:49:45;1.98;;;1.20;;
36829;SDS011;22767;47.328;9.640;2023-01-16T11:52:13;1.05;;;0.95;;
36829;SDS011;22767;47.328;9.640;2023-01-16T11:54:59;2.42;;;0.90;;
36829;SDS011;22767;47.328;9.640;2023-01-16T12:11:07;1.15;;;0.75;;
36829;SDS011;22767;47.328;9.640;2023-01-16T12:16:27;1.10;;;0.73;;
36829;SDS011;22767;47.328;9.640;2023-01-16T12:21:38;2.30;;;0.85;;
36829;SDS011;22767;47.328;9.640;2023-01-16T12:24:20;1.45;;;0.80;;
36829;SDS011;22767;47.328;9.640;2023-01-16T12:26:57;3.60;;;0.88;;
36829;SDS011;22767;47.328;9.640;2023-01-16T12:37:27;1.83;;;0.77;;
36829;SDS011;22767;47.328;9.640;2023-01-16T12:55:43;4.47;;;1.63;;
36829;SDS011;22767;47.328;9.640;2023-01-16T12:58:15;3.58;;;1.08;;
36829;SDS011;22767;47.328;9.640;2023-01-16T13:03:23;3.70;;;1.40;;
36829;SDS011;22767;47.328;9.640;2023-01-16T13:05:51;3.05;;;1.30;;
36829;SDS011;22767;47.328;9.640;2023-01-16T13:08:23;3.58;;;1.20;;
36829;SDS011;22767;47.328;9.640;2023-01-16T13:10:51;3.83;;;1.00;;
36829;SDS011;22767;47.328;9.640;2023-01-16T13:13:47;2.15;;;0.90;;
36829;SDS011;22767;47.328;9.640;2023-01-16T13:18:51;2.08;;;1.20;;
36829;SDS011;22767;47.328;9.640;2023-01-16T13:21:20;5.75;;;1.38;;
36829;SDS011;22767;47.328;9.640;2023-01-16T13:23:48;2.08;;;1.27;;
36829;SDS011;22767;47.328;9.640;2023-01-16T13:26:16;4.32;;;1.70;;
36829;SDS011;22767;47.328;9.640;2023-01-16T13:28:57;2.65;;;1.55;;
36829;SDS011;22767;47.328;9.640;2023-01-16T13:31:36;2.72;;;1.58;;
36829;SDS011;22767;47.328;9.640;2023-01-16T13:34:13;5.18;;;1.90;;
36829;SDS011;22767;47.328;9.640;2023-01-16T13:41:46;2.00;;;1.10;;
36829;SDS011;22767;47.328;9.640;2023-01-16T13:47:08;2.55;;;1.52;;
36829;SDS011;22767;47.328;9.640;2023-01-16T13:49:37;3.67;;;1.33;;
36829;SDS011;22767;47.328;9.640;2023-01-16T13:52:04;4.15;;;1.20;;
36829;SDS011;22767;47.328;9.640;2023-01-16T13:54:41;2.00;;;1.17;;
36829;SDS011;22767;47.328;9.640;2023-01-16T13:57:12;4.18;;;1.20;;
36829;SDS011;22767;47.328;9.640;2023-01-16T14:07:48;1.88;;;1.02;;
36829;SDS011;22767;47.328;9.640;2023-01-16T14:15:52;3.38;;;1.63;;
36829;SDS011;22767;47.328;9.640;2023-01-16T14:18:41;3.97;;;1.35;;
36829;SDS011;22767;47.328;9.640;2023-01-16T14:21:16;4.15;;;1.70;;
36829;SDS011;22767;47.328;9.640;2023-01-16T14:23:44;5.38;;;2.47;;
36829;SDS011;22767;47.328;9.640;2023-01-16T14:26:38;3.63;;;2.20;;
36829;SDS011;22767;47.328;9.640;2023-01-16T14:29:26;3.47;;;1.70;;
36829;SDS011;22767;47.328;9.640;2023-01-16T14:31:53;4.30;;;2.00;;
36829;SDS011;22767;47.328;9.640;2023-01-16T14:34:21;2.47;;;1.20;;
36829;SDS011;22767;47.328;9.640;2023-01-16T14:36:50;3.83;;;1.20;;
36829;SDS011;22767;47.328;9.640;2023-01-16T14:39:28;1.65;;;1.30;;
36829;SDS011;22767;47.328;9.640;2023-01-16T14:41:56;3.03;;;1.23;;
36829;SDS011;22767;47.328;9.640;2023-01-16T14:50:54;1.45;;;1.08;;
36829;SDS011;22767;47.328;9.640;2023-01-16T14:53:41;3.13;;;1.40;;
36829;SDS011;22767;47.328;9.640;2023-01-16T14:56:26;2.95;;;1.50;;
36829;SDS011;22767;47.328;9.640;2023-01-16T15:01:59;3.33;;;1.50;;
36829;SDS011;22767;47.328;9.640;2023-01-16T15:07:42;3.47;;;1.52;;
36829;SDS011;22767;47.328;9.640;2023-01-16T15:12:43;4.25;;;1.80;;
36829;SDS011;22767;47.328;9.640;2023-01-16T15:15:21;3.35;;;1.70;;
36829;SDS011;22767;47.328;9.640;2023-01-16T15:17:49;2.95;;;1.67;;
36829;SDS011;22767;47.328;9.640;2023-01-16T15:20:35;4.18;;;1.83;;
36829;SDS011;22767;47.328;9.640;2023-01-16T15:26:03;2.13;;;1.40;;
36829;SDS011;22767;47.328;9.640;2023-01-16T15:31:25;3.35;;;1.98;;
36829;SDS011;22767;47.328;9.640;2023-01-16T15:36:45;3.58;;;1.92;;
36829;SDS011;22767;47.328;9.640;2023-01-16T15:42:00;4.85;;;1.95;;
36829;SDS011;22767;47.328;9.640;2023-01-16T15:44:45;4.95;;;2.10;;
36829;SDS011;22767;47.328;9.640;2023-01-16T15:52:57;2.97;;;1.73;;
36829;SDS011;22767;47.328;9.640;2023-01-16T15:55:25;3.10;;;2.00;;
36829;SDS011;22767;47.328;9.640;2023-01-16T15:57:58;4.15;;;2.30;;
36829;SDS011;22767;47.328;9.640;2023-01-16T16:00:35;3.53;;;2.28;;
36829;SDS011;22767;47.328;9.640;2023-01-16T16:03:15;5.10;;;2.15;;
36829;SDS011;22767;47.328;9.640;2023-01-16T16:05:45;4.90;;;1.95;;
36829;SDS011;22767;47.328;9.640;2023-01-16T16:08:22;3.67;;;2.00;;
36829;SDS011;22767;47.328;9.640;2023-01-16T16:10:50;4.68;;;2.10;;
36829;SDS011;22767;47.328;9.640;2023-01-16T16:13:35;4.57;;;2.15;;
36829;SDS011;22767;47.328;9.640;2023-01-16T16:16:03;7.65;;;3.70;;
36829;SDS011;22767;47.328;9.640;2023-01-16T16:18:52;8.50;;;3.35;;
36829;SDS011;22767;47.328;9.640;2023-01-16T16:21:18;6.70;;;3.20;;
36829;SDS011;22767;47.328;9.640;2023-01-16T16:23:45;6.93;;;3.58;;
36829;SDS011;22767;47.328;9.640;2023-01-16T16:26:12;8.55;;;3.67;;
36829;SDS011;22767;47.328;9.640;2023-01-16T16:28:40;5.60;;;3.45;;
36829;SDS011;22767;47.328;9.640;2023-01-16T16:31:22;5.47;;;3.40;;
36829;SDS011;22767;47.328;9.640;2023-01-16T16:36:24;11.38;;;5.07;;
36829;SDS011;22767;47.328;9.640;2023-01-16T16:38:52;11.52;;;5.22;;
36829;SDS011;22767;47.328;9.640;2023-01-16T16:44:25;10.38;;;5.38;;
36829;SDS011;22767;47.328;9.640;2023-01-16T16:46:58;11.48;;;5.55;;
36829;SDS011;22767;47.328;9.640;2023-01-16T16:51:50;10.25;;;5.18;;
36829;SDS011;22767;47.328;9.640;2023-01-16T16:54:17;7.65;;;4.28;;
36829;SDS011;22767;47.328;9.640;2023-01-16T16:56:44;10.55;;;4.68;;
36829;SDS011;22767;47.328;9.640;2023-01-16T16:59:19;12.70;;;5.30;;
36829;SDS011;22767;47.328;9.640;2023-01-16T17:01:47;16.58;;;8.63;;
36829;SDS011;22767;47.328;9.640;2023-01-16T17:04:13;10.55;;;5.72;;
36829;SDS011;22767;47.328;9.640;2023-01-16T17:06:42;14.18;;;5.22;;
36829;SDS011;22767;47.328;9.640;2023-01-16T17:09:13;11.20;;;5.75;;
36829;SDS011;22767;47.328;9.640;2023-01-16T17:11:40;10.07;;;5.45;;
36829;SDS011;22767;47.328;9.640;2023-01-16T17:14:06;9.60;;;4.63;;
36829;SDS011;22767;47.328;9.640;2023-01-16T17:16:32;10.68;;;4.43;;
36829;SDS011;22767;47.328;9.640;2023-01-16T17:19:09;7.70;;;4.07;;
36829;SDS011;22767;47.328;9.640;2023-01-16T17:21:40;7.00;;;3.72;;
36829;SDS011;22767;47.328;9.640;2023-01-16T17:24:08;8.40;;;3.90;;
36829;SDS011;22767;47.328;9.640;2023-01-16T17:26:34;4.60;;;3.20;;
36829;SDS011;22767;47.328;9.640;2023-01-16T17:29:03;5.70;;;3.17;;
36829;SDS011;22767;47.328;9.640;2023-01-16T17:31:29;5.70;;;3.03;;
36829;SDS011;22767;47.328;9.640;2023-01-16T17:33:56;5.35;;;3.45;;
36829;SDS011;22767;47.328;9.640;2023-01-16T17:36:23;7.82;;;3.80;;
36829;SDS011;22767;47.328;9.640;2023-01-16T17:38:49;7.45;;;4.75;;
36829;SDS011;22767;47.328;9.640;2023-01-16T17:41:20;11.18;;;6.28;;
36829;SDS011;22767;47.328;9.640;2023-01-16T17:44:16;15.90;;;8.50;;
36829;SDS011;22767;47.328;9.640;2023-01-16T17:47:02;19.85;;;9.25;;
36829;SDS011;22767;47.328;9.640;2023-01-16T17:49:29;25.80;;;11.40;;
36829;SDS011;22767;47.328;9.640;2023-01-16T17:51:55;20.30;;;9.45;;
36829;SDS011;22767;47.328;9.640;2023-01-16T17:54:21;18.15;;;9.20;;
36829;SDS011;22767;47.328;9.640;2023-01-16T17:57:06;21.00;;;11.20;;
36829;SDS011;22767;47.328;9.640;2023-01-16T17:59:32;25.83;;;12.20;;
36829;SDS011;22767;47.328;9.640;2023-01-16T18:01:59;13.82;;;7.43;;
36829;SDS011;22767;47.328;9.640;2023-01-16T18:04:25;15.10;;;8.00;;
36829;SDS011;22767;47.328;9.640;2023-01-16T18:06:56;3.85;;;1.88;;
36829;SDS011;22767;47.328;9.640;2023-01-16T18:09:23;10.10;;;5.20;;
36829;SDS011;22767;47.328;9.640;2023-01-16T18:11:50;7.18;;;3.65;;